createdAt,value
2023-03-31T00:00:52.921Z,5.70
2023-03-31T00:03:24.380Z,5.60
2023-03-31T00:06:00.201Z,5.50
2023-03-31T00:08:30.524Z,5.50
2023-03-31T00:11:01.360Z,5.60
2023-03-31T00:13:29.761Z,5.70
2023-03-31T00:16:03.047Z,5.70
2023-03-31T00:18:31.035Z,5.70
2023-03-31T00:21:34.139Z,5.70
2023-03-31T00:24:04.032Z,5.60
2023-03-31T00:26:31.124Z,5.70
2023-03-31T00:28:59.168Z,5.70
2023-03-31T00:31:29.847Z,5.80
2023-03-31T00:33:57.152Z,5.80
2023-03-31T00:36:28.044Z,5.80
2023-03-31T00:38:59.316Z,5.80
2023-03-31T00:41:27.691Z,5.80
2023-03-31T00:44:09.528Z,5.80
2023-03-31T00:46:53.690Z,5.70
2023-03-31T00:49:34.275Z,5.80
2023-03-31T00:52:24.661Z,5.70
2023-03-31T00:54:58.294Z,5.70
2023-03-31T00:57:28.758Z,5.70
2023-03-31T01:00:10.510Z,5.80
2023-03-31T01:02:41.659Z,5.90
2023-03-31T01:05:09.545Z,5.80
2023-03-31T01:07:46.395Z,5.80
2023-03-31T01:10:13.450Z,5.80
2023-03-31T01:12:43.897Z,5.80
2023-03-31T01:15:11.374Z,5.80
2023-03-31T01:17:38.938Z,5.80
2023-03-31T01:20:26.032Z,5.80
2023-03-31T01:23:25.772Z,5.80
2023-03-31T01:26:17.216Z,5.90
2023-03-31T01:29:02.082Z,5.90
2023-03-31T01:32:06.643Z,6.00
2023-03-31T01:35:01.481Z,6.00
2023-03-31T01:37:46.218Z,6.00
2023-03-31T01:40:34.184Z,6.10
2023-03-31T01:43:12.822Z,6.20
2023-03-31T01:45:55.010Z,6.20
2023-03-31T01:48:46.644Z,6.30
2023-03-31T01:51:19.382Z,6.30
2023-03-31T01:53:58.784Z,6.40
2023-03-31T01:56:41.892Z,6.40
2023-03-31T01:59:13.925Z,6.40
2023-03-31T02:01:52.653Z,6.40
2023-03-31T02:04:23.797Z,6.30
2023-03-31T02:06:59.542Z,6.30
2023-03-31T02:09:36.285Z,6.30
2023-03-31T02:12:08.717Z,6.30
2023-03-31T02:14:39.086Z,6.30
2023-03-31T02:17:08.420Z,6.30
2023-03-31T02:19:44.487Z,6.30
2023-03-31T02:22:13.157Z,6.30
2023-03-31T02:24:41.908Z,6.30
2023-03-31T02:27:28.576Z,6.40
2023-03-31T02:29:56.281Z,6.50
2023-03-31T02:32:32.857Z,6.60
2023-03-31T02:35:01.173Z,6.60
2023-03-31T02:37:30.617Z,6.70
2023-03-31T02:40:01.691Z,6.70
2023-03-31T02:42:29.082Z,6.70
2023-03-31T02:45:05.588Z,6.70
2023-03-31T02:47:33.469Z,6.70
2023-03-31T02:50:03.469Z,6.70
2023-03-31T02:52:51.666Z,6.80
2023-03-31T02:55:39.426Z,6.80
2023-03-31T02:58:31.329Z,6.80
2023-03-31T03:01:27.630Z,6.70
2023-03-31T03:04:25.863Z,6.80
2023-03-31T03:07:00.800Z,6.80
2023-03-31T03:09:59.591Z,6.80
2023-03-31T03:12:45.568Z,6.80
2023-03-31T03:15:26.662Z,6.80
2023-03-31T03:17:55.977Z,6.90
2023-03-31T03:20:23.808Z,6.90
2023-03-31T03:22:51.102Z,6.90
2023-03-31T03:25:18.300Z,6.90
2023-03-31T03:27:45.381Z,6.80
2023-03-31T03:30:13.856Z,6.90
2023-03-31T03:32:41.896Z,6.90
2023-03-31T03:35:09.511Z,6.90
2023-03-31T03:37:36.873Z,6.80
2023-03-31T03:40:07.508Z,6.80
2023-03-31T03:42:35.537Z,6.80
2023-03-31T03:45:02.605Z,6.80
2023-03-31T03:47:29.688Z,6.80
2023-03-31T03:49:56.699Z,6.80
2023-03-31T03:52:23.727Z,6.80
2023-03-31T03:54:50.690Z,6.70
2023-03-31T03:57:17.676Z,6.60
2023-03-31T03:59:44.664Z,6.60
2023-03-31T04:02:11.926Z,6.50
2023-03-31T04:04:38.988Z,6.50
2023-03-31T04:07:06.099Z,6.60
2023-03-31T04:09:33.038Z,6.50
2023-03-31T04:12:00.038Z,6.60
2023-03-31T04:14:27.078Z,6.50
2023-03-31T04:16:56.459Z,6.50
2023-03-31T04:19:26.141Z,6.50
2023-03-31T04:21:59.175Z,6.50
2023-03-31T04:24:30.867Z,6.60
2023-03-31T04:26:58.280Z,6.60
2023-03-31T04:29:26.898Z,6.60
2023-03-31T04:31:58.874Z,6.60
2023-03-31T04:34:35.058Z,6.60
2023-03-31T04:37:03.123Z,6.60
2023-03-31T04:39:31.067Z,6.50
2023-03-31T04:41:59.617Z,6.50
2023-03-31T04:44:27.499Z,6.50
2023-03-31T04:46:55.243Z,6.50
2023-03-31T04:49:22.798Z,6.40
2023-03-31T04:51:49.950Z,6.40
2023-03-31T04:54:17.073Z,6.50
2023-03-31T04:56:44.216Z,6.50
2023-03-31T04:59:11.401Z,6.50
2023-03-31T05:01:38.448Z,6.50
2023-03-31T05:04:05.937Z,6.50
2023-03-31T05:06:33.517Z,6.50
2023-03-31T05:09:00.754Z,6.50
2023-03-31T05:11:29.142Z,6.50
2023-03-31T05:13:56.145Z,6.50
2023-03-31T05:16:23.217Z,6.50
2023-03-31T05:18:50.374Z,6.50
2023-03-31T05:21:20.775Z,6.50
2023-03-31T05:23:48.329Z,6.50
2023-03-31T05:26:16.018Z,6.60
2023-03-31T05:28:43.134Z,6.60
2023-03-31T05:31:11.452Z,6.70
2023-03-31T05:33:41.415Z,6.70
2023-03-31T05:36:16.226Z,6.80
2023-03-31T05:38:43.907Z,6.90
2023-03-31T05:41:12.028Z,6.90
2023-03-31T05:43:39.981Z,7.00
2023-03-31T05:46:07.574Z,7.00
2023-03-31T05:48:35.508Z,7.10
2023-03-31T05:51:02.775Z,7.10
2023-03-31T05:53:30.456Z,7.10
2023-03-31T05:56:03.060Z,7.10
2023-03-31T05:58:30.496Z,7.10
2023-03-31T06:01:23.317Z,7.10
2023-03-31T06:03:50.912Z,7.10
2023-03-31T06:06:18.420Z,7.20
2023-03-31T06:08:47.243Z,7.20
2023-03-31T06:11:19.795Z,7.10
2023-03-31T06:13:46.916Z,7.10
2023-03-31T06:16:15.144Z,7.10
2023-03-31T06:18:42.585Z,7.10
2023-03-31T06:21:14.416Z,7.10
2023-03-31T06:23:41.806Z,7.10
2023-03-31T06:26:09.265Z,7.10
2023-03-31T06:28:36.734Z,7.00
2023-03-31T06:31:09.575Z,7.00
2023-03-31T06:33:36.719Z,7.00
2023-03-31T06:36:05.768Z,7.10
2023-03-31T06:38:34.939Z,7.10
2023-03-31T06:41:02.458Z,7.00
2023-03-31T06:43:29.419Z,7.00
2023-03-31T06:45:56.927Z,7.00
2023-03-31T06:48:24.920Z,7.00
2023-03-31T06:50:53.439Z,7.00
2023-03-31T06:53:22.192Z,7.00
2023-03-31T06:55:49.176Z,7.00
2023-03-31T06:58:16.341Z,7.10
2023-03-31T07:00:44.701Z,7.10
2023-03-31T07:03:12.413Z,7.10
2023-03-31T07:05:39.654Z,7.10
2023-03-31T07:08:06.760Z,7.20
2023-03-31T07:10:33.807Z,7.20
2023-03-31T07:13:01.886Z,7.30
2023-03-31T07:15:30.317Z,7.40
2023-03-31T07:18:02.256Z,7.40
2023-03-31T07:20:30.775Z,7.30
2023-03-31T07:22:57.928Z,7.30
2023-03-31T07:25:25.260Z,7.40
2023-03-31T07:27:52.223Z,7.40
2023-03-31T07:30:20.784Z,7.40
2023-03-31T07:32:49.636Z,7.50
2023-03-31T07:35:16.844Z,7.40
2023-03-31T07:37:46.826Z,7.40
2023-03-31T07:40:16.881Z,7.40
2023-03-31T07:42:46.471Z,7.50
2023-03-31T07:45:16.768Z,7.50
2023-03-31T07:47:46.554Z,7.40
2023-03-31T07:50:15.275Z,7.40
2023-03-31T07:52:43.607Z,7.40
2023-03-31T07:55:12.689Z,7.40
2023-03-31T07:57:40.703Z,7.50
2023-03-31T08:00:10.903Z,7.50
2023-03-31T08:02:38.373Z,7.50
2023-03-31T08:05:07.509Z,7.50
2023-03-31T08:07:36.914Z,7.50
2023-03-31T08:10:08.547Z,7.60
2023-03-31T08:12:35.629Z,7.70
2023-03-31T08:15:02.807Z,8.00
2023-03-31T08:17:29.878Z,8.30
2023-03-31T08:19:58.426Z,8.50
2023-03-31T08:22:26.920Z,8.60
2023-03-31T08:24:53.935Z,8.80
2023-03-31T08:27:21.076Z,8.80
2023-03-31T08:29:48.424Z,8.80
2023-03-31T08:32:15.649Z,8.70
2023-03-31T08:34:42.891Z,8.70
2023-03-31T08:37:10.590Z,8.80
2023-03-31T08:39:37.667Z,8.90
2023-03-31T08:42:16.350Z,9.10
2023-03-31T08:44:51.140Z,9.30
2023-03-31T08:47:24.020Z,9.40
2023-03-31T08:49:56.888Z,9.80
2023-03-31T08:52:29.540Z,10.40
2023-03-31T08:55:07.864Z,11.50
2023-03-31T08:57:57.000Z,12.60
2023-03-31T09:00:24.354Z,13.40
2023-03-31T09:02:56.371Z,13.90
2023-03-31T09:05:23.434Z,13.80
2023-03-31T09:08:04.699Z,14.00
2023-03-31T09:10:35.820Z,14.30
2023-03-31T09:13:14.710Z,14.60
2023-03-31T09:16:04.113Z,15.00
2023-03-31T09:18:38.893Z,15.10
2023-03-31T09:21:21.777Z,15.10
2023-03-31T09:24:02.239Z,15.00
2023-03-31T09:26:39.170Z,14.90
2023-03-31T09:29:19.385Z,15.10
2023-03-31T09:31:47.173Z,15.40
2023-03-31T09:34:17.753Z,15.60
2023-03-31T09:36:44.885Z,15.80
2023-03-31T09:39:15.384Z,15.80
2023-03-31T09:41:46.334Z,15.80
2023-03-31T09:44:26.133Z,15.60
2023-03-31T09:46:54.699Z,15.50
2023-03-31T09:49:26.348Z,15.20
2023-03-31T09:52:15.334Z,15.00
2023-03-31T09:54:56.809Z,15.00
2023-03-31T09:57:33.589Z,15.20
2023-03-31T10:00:19.242Z,15.20
2023-03-31T10:02:56.993Z,14.80
2023-03-31T10:05:31.555Z,14.30
2023-03-31T10:08:17.204Z,14.30
2023-03-31T10:11:18.059Z,14.60
2023-03-31T10:14:03.474Z,14.60
2023-03-31T10:16:50.747Z,14.40
2023-03-31T10:19:26.117Z,14.50
2023-03-31T10:22:15.466Z,14.40
2023-03-31T10:24:44.935Z,14.40
2023-03-31T10:27:28.234Z,14.30
2023-03-31T10:29:57.455Z,14.70
2023-03-31T10:32:29.398Z,15.00
2023-03-31T10:35:06.647Z,15.00
2023-03-31T10:37:36.842Z,14.90
2023-03-31T10:40:16.382Z,15.20
2023-03-31T10:42:46.816Z,15.40
2023-03-31T10:45:38.633Z,15.40
2023-03-31T10:48:07.213Z,15.60
2023-03-31T10:50:36.316Z,15.90
2023-03-31T10:53:07.486Z,15.80
2023-03-31T10:55:39.675Z,15.10
2023-03-31T10:58:14.091Z,14.80
2023-03-31T11:00:44.045Z,14.70
2023-03-31T11:03:36.667Z,14.80
2023-03-31T11:06:11.827Z,15.00
2023-03-31T11:08:49.938Z,15.10
2023-03-31T11:11:16.917Z,15.30
2023-03-31T11:14:01.446Z,15.50
2023-03-31T11:16:28.374Z,15.80
2023-03-31T11:18:58.303Z,15.90
2023-03-31T11:21:56.467Z,15.50
2023-03-31T11:24:41.304Z,15.30
2023-03-31T11:27:17.333Z,15.70
2023-03-31T11:30:15.344Z,16.10
2023-03-31T11:33:05.922Z,16.10
2023-03-31T11:35:48.976Z,16.30
2023-03-31T11:39:15.147Z,16.00
2023-03-31T11:41:53.739Z,15.90
2023-03-31T11:44:24.018Z,15.90
2023-03-31T11:47:00.285Z,16.00
2023-03-31T11:49:31.102Z,15.90
2023-03-31T11:52:02.438Z,16.10
2023-03-31T11:54:43.463Z,16.20
2023-03-31T11:57:19.854Z,16.30
2023-03-31T11:59:55.098Z,16.50
2023-03-31T12:02:31.048Z,16.50
2023-03-31T12:04:59.430Z,16.50
2023-03-31T12:07:48.535Z,16.40
2023-03-31T12:10:29.900Z,15.90
2023-03-31T12:13:05.279Z,15.20
2023-03-31T12:15:38.513Z,15.00
2023-03-31T12:18:24.964Z,14.60
2023-03-31T12:20:58.570Z,14.20
2023-03-31T12:23:29.552Z,12.00
2023-03-31T12:26:12.958Z,9.40
2023-03-31T12:28:42.975Z,8.20
2023-03-31T12:31:17.753Z,7.60
2023-03-31T12:33:53.764Z,7.30
2023-03-31T12:36:48.061Z,7.20
2023-03-31T12:39:30.063Z,7.30
2023-03-31T12:42:25.082Z,7.40
2023-03-31T12:45:23.451Z,7.70
2023-03-31T12:48:15.048Z,7.90
2023-03-31T12:50:48.125Z,8.30
2023-03-31T12:53:40.165Z,8.70
2023-03-31T12:56:07.364Z,9.20
2023-03-31T12:58:43.492Z,9.40
2023-03-31T13:04:21.559Z,9.80
2023-03-31T13:06:53.909Z,9.90
2023-03-31T13:09:42.127Z,10.10
2023-03-31T13:12:14.671Z,10.50
2023-03-31T13:14:44.385Z,10.70
2023-03-31T13:17:23.636Z,10.80
2023-03-31T13:19:51.819Z,11.00
2023-03-31T13:22:34.587Z,11.30
2023-03-31T13:25:47.677Z,11.30
2023-03-31T13:28:23.298Z,11.30
2023-03-31T13:30:52.167Z,11.40
2023-03-31T13:33:32.722Z,11.40
2023-03-31T13:36:22.913Z,11.90
2023-03-31T13:39:17.624Z,12.60
2023-03-31T13:42:28.966Z,13.00
2023-03-31T13:45:06.541Z,13.10
2023-03-31T13:47:53.739Z,13.30
2023-03-31T13:50:36.182Z,13.70
2023-03-31T13:53:21.514Z,13.80
2023-03-31T13:56:24.095Z,13.80
2023-03-31T13:59:09.086Z,13.70
2023-03-31T14:01:54.030Z,13.40
2023-03-31T14:04:35.884Z,12.80
2023-03-31T14:07:29.108Z,12.10
2023-03-31T14:09:58.462Z,11.80
2023-03-31T14:12:31.637Z,11.80
2023-03-31T14:14:58.747Z,11.60
2023-03-31T14:17:34.037Z,11.50
2023-03-31T14:20:22.510Z,11.50
2023-03-31T14:23:08.035Z,11.60
2023-03-31T14:25:56.066Z,11.80
2023-03-31T14:28:48.062Z,12.00
2023-03-31T14:31:44.808Z,11.90
2023-03-31T14:34:40.015Z,11.80
2023-03-31T14:37:13.779Z,11.80
2023-03-31T14:39:46.845Z,11.80
2023-03-31T14:42:16.793Z,11.70
2023-03-31T14:44:47.033Z,11.80
2023-03-31T14:47:26.341Z,11.90
2023-03-31T14:50:14.867Z,11.90
2023-03-31T14:52:50.996Z,11.70
2023-03-31T14:55:24.932Z,11.40
2023-03-31T14:57:55.430Z,10.90
2023-03-31T15:00:31.726Z,10.70
2023-03-31T15:03:02.041Z,10.60
2023-03-31T15:05:31.516Z,10.50
2023-03-31T15:08:02.293Z,10.50
2023-03-31T15:10:37.530Z,10.40
2023-03-31T15:13:16.647Z,10.30
2023-03-31T15:15:46.314Z,10.10
2023-03-31T15:18:15.986Z,9.90
2023-03-31T15:20:44.492Z,9.80
2023-03-31T15:23:28.519Z,9.90
2023-03-31T15:25:59.024Z,10.20
2023-03-31T15:28:33.802Z,10.30
2023-03-31T15:31:10.264Z,10.40
2023-03-31T15:36:30.042Z,10.70
2023-03-31T15:38:59.217Z,11.10
2023-03-31T15:41:31.091Z,11.70
2023-03-31T15:44:08.478Z,12.20
2023-03-31T15:46:38.429Z,12.10
2023-03-31T15:49:18.896Z,11.70
2023-03-31T15:51:47.489Z,11.60
2023-03-31T15:54:31.618Z,11.50
2023-03-31T15:57:01.792Z,11.70
2023-03-31T15:59:41.803Z,11.90
2023-03-31T16:02:22.541Z,11.90
2023-03-31T16:04:53.836Z,11.60
2023-03-31T16:07:30.506Z,11.30
2023-03-31T16:10:07.638Z,11.00
2023-03-31T16:12:39.514Z,10.80
2023-03-31T16:15:14.319Z,10.80
2023-03-31T16:17:52.866Z,11.00
2023-03-31T16:20:24.867Z,11.20
2023-03-31T16:22:58.892Z,11.40
2023-03-31T16:25:28.381Z,11.60
2023-03-31T16:28:01.134Z,11.70
2023-03-31T16:30:39.837Z,11.80
2023-03-31T16:33:09.840Z,11.60
2023-03-31T16:35:56.199Z,11.30
2023-03-31T16:38:28.557Z,10.70
2023-03-31T16:40:58.909Z,10.30
2023-03-31T16:43:31.185Z,10.00
2023-03-31T16:46:01.220Z,9.80
2023-03-31T16:48:34.970Z,9.70
2023-03-31T16:51:02.477Z,9.50
2023-03-31T16:53:34.595Z,9.40
2023-03-31T16:56:02.342Z,9.30
2023-03-31T16:58:29.629Z,9.30
2023-03-31T17:00:58.041Z,9.20
2023-03-31T17:03:25.347Z,9.20
2023-03-31T17:05:56.828Z,9.20
2023-03-31T17:08:27.838Z,9.20
2023-03-31T17:11:07.643Z,9.20
2023-03-31T17:13:34.889Z,9.20
2023-03-31T17:18:49.556Z,9.20
2023-03-31T17:21:20.113Z,9.20
2023-03-31T17:23:47.794Z,9.20
2023-03-31T17:26:15.617Z,9.20
2023-03-31T17:28:42.953Z,9.20
2023-03-31T17:31:17.117Z,9.20
2023-03-31T17:33:44.217Z,9.10
2023-03-31T17:36:11.570Z,9.10
2023-03-31T17:38:40.024Z,9.00
2023-03-31T17:41:09.648Z,8.90
2023-03-31T17:43:38.142Z,8.80
2023-03-31T17:46:08.212Z,8.80
2023-03-31T17:48:39.893Z,8.70
2023-03-31T17:51:17.420Z,8.70
2023-03-31T17:53:46.248Z,8.70
2023-03-31T17:56:14.328Z,8.60
2023-03-31T17:58:41.727Z,8.60
2023-03-31T18:01:13.608Z,8.50
2023-03-31T18:03:41.329Z,8.50
2023-03-31T18:06:11.666Z,8.50
2023-03-31T18:08:39.324Z,8.50
2023-03-31T18:11:08.638Z,8.40
2023-03-31T18:13:38.969Z,8.40
2023-03-31T18:16:09.573Z,8.40
2023-03-31T18:18:37.262Z,8.40
2023-03-31T18:21:06.226Z,8.40
2023-03-31T18:23:33.882Z,8.30
2023-03-31T18:26:01.913Z,8.30
2023-03-31T18:28:29.197Z,8.30
2023-03-31T18:30:56.474Z,8.30
2023-03-31T18:33:23.648Z,8.30
2023-03-31T18:35:50.815Z,8.20
2023-03-31T18:38:18.626Z,8.20
2023-03-31T18:40:50.011Z,8.20
2023-03-31T18:43:18.550Z,8.20
2023-03-31T18:45:49.722Z,8.20
2023-03-31T18:48:18.627Z,8.20
2023-03-31T18:50:46.333Z,8.20
2023-03-31T18:53:15.326Z,8.20
2023-03-31T18:55:43.229Z,8.20
2023-03-31T18:58:10.455Z,8.30
2023-03-31T19:00:37.428Z,8.10
2023-03-31T19:03:04.600Z,8.10
2023-03-31T19:05:31.693Z,7.90
2023-03-31T19:07:59.182Z,7.80
2023-03-31T19:10:26.363Z,7.70
2023-03-31T19:12:54.435Z,7.60
2023-03-31T19:15:22.649Z,7.50
2023-03-31T19:17:49.708Z,7.40
2023-03-31T19:20:16.979Z,7.30
2023-03-31T19:22:52.323Z,7.30
2023-03-31T19:25:20.801Z,7.20
2023-03-31T19:27:48.486Z,7.10
2023-03-31T19:30:24.274Z,7.00
2023-03-31T19:32:51.588Z,6.90
2023-03-31T19:35:19.991Z,6.80
2023-03-31T19:37:47.512Z,6.80
2023-03-31T19:40:14.831Z,6.70
2023-03-31T19:42:44.770Z,6.60
2023-03-31T19:45:12.031Z,6.60
2023-03-31T19:47:40.707Z,6.60
2023-03-31T19:50:08.641Z,6.50
2023-03-31T19:52:36.682Z,6.40
2023-03-31T19:55:03.869Z,6.40
2023-03-31T19:57:31.185Z,6.40
2023-03-31T19:59:58.254Z,6.30
2023-03-31T20:02:26.785Z,6.40
2023-03-31T20:04:54.212Z,6.40
2023-03-31T20:07:21.412Z,6.40
2023-03-31T20:09:48.393Z,6.40
2023-03-31T20:12:15.872Z,6.40
2023-03-31T20:14:43.628Z,6.40
2023-03-31T20:17:12.926Z,6.30
2023-03-31T20:19:40.380Z,6.30
2023-03-31T20:22:07.330Z,6.30
2023-03-31T20:24:34.841Z,6.20
2023-03-31T20:27:01.878Z,6.20
2023-03-31T20:29:30.226Z,6.20
2023-03-31T20:31:57.303Z,6.20
2023-03-31T20:34:24.529Z,6.10
2023-03-31T20:36:54.393Z,6.20
2023-03-31T20:39:21.756Z,6.10
2023-03-31T20:41:50.226Z,6.20
2023-03-31T20:44:17.454Z,6.20
2023-03-31T20:46:45.040Z,6.30
2023-03-31T20:49:12.681Z,6.30
2023-03-31T20:51:40.331Z,6.40
2023-03-31T20:54:08.115Z,6.40
2023-03-31T20:56:39.668Z,6.40
2023-03-31T20:59:08.895Z,6.50
2023-03-31T21:01:37.442Z,6.50
2023-03-31T21:04:07.127Z,6.60
2023-03-31T21:06:40.369Z,6.60
2023-03-31T21:09:08.366Z,6.60
2023-03-31T21:11:35.470Z,6.60
2023-03-31T21:14:02.530Z,6.60
2023-03-31T21:16:29.546Z,6.70
2023-03-31T21:18:57.133Z,6.70
2023-03-31T21:21:25.045Z,6.70
2023-03-31T21:23:52.502Z,6.70
2023-03-31T21:26:20.802Z,6.70
2023-03-31T21:28:51.816Z,6.70
2023-03-31T21:31:19.264Z,6.70
2023-03-31T21:33:47.580Z,6.60
2023-03-31T21:36:17.833Z,6.60
2023-03-31T21:38:45.741Z,6.60
2023-03-31T21:41:15.524Z,6.50
2023-03-31T21:43:43.609Z,6.50
2023-03-31T21:46:17.247Z,6.40
2023-03-31T21:48:44.418Z,6.40
2023-03-31T21:51:11.997Z,6.30
2023-03-31T21:53:39.093Z,6.20
2023-03-31T21:56:06.386Z,6.20
2023-03-31T21:58:33.458Z,6.20
2023-03-31T22:01:04.126Z,6.10
2023-03-31T22:03:34.549Z,6.10
2023-03-31T22:06:04.237Z,6.10
2023-03-31T22:08:31.759Z,6.10
2023-03-31T22:11:00.549Z,6.10
2023-03-31T22:13:28.804Z,6.10
2023-03-31T22:15:56.442Z,6.10
2023-03-31T22:18:23.998Z,6.10
2023-03-31T22:20:51.278Z,6.20
2023-03-31T22:23:20.666Z,6.20
2023-03-31T22:25:48.276Z,6.20
2023-03-31T22:28:16.943Z,6.20
2023-03-31T22:30:44.405Z,6.20
2023-03-31T22:33:11.417Z,6.20
2023-03-31T22:35:38.710Z,6.20
2023-03-31T22:38:06.691Z,6.10
2023-03-31T22:40:35.808Z,6.10
2023-03-31T22:43:02.782Z,6.10
2023-03-31T22:45:29.901Z,6.10
2023-03-31T22:47:57.253Z,6.10
2023-03-31T22:50:24.485Z,6.10
2023-03-31T22:52:52.147Z,6.10
2023-03-31T22:55:19.527Z,6.20
2023-03-31T22:57:46.776Z,6.20
2023-03-31T23:00:14.309Z,6.20
2023-03-31T23:02:42.326Z,6.20
2023-03-31T23:05:10.125Z,6.20
2023-03-31T23:07:38.028Z,6.20
2023-03-31T23:10:06.213Z,6.20
2023-03-31T23:12:33.213Z,6.20
2023-03-31T23:15:00.365Z,6.20
2023-03-31T23:17:27.408Z,6.20
2023-03-31T23:19:54.391Z,6.10
2023-03-31T23:22:21.781Z,6.10
2023-03-31T23:24:49.729Z,6.10
2023-03-31T23:27:16.774Z,6.00
2023-03-31T23:29:44.654Z,6.00
2023-03-31T23:32:12.167Z,6.00
2023-03-31T23:34:42.462Z,6.00
2023-03-31T23:37:11.612Z,6.00
2023-03-31T23:39:39.045Z,6.10
2023-03-31T23:42:10.730Z,6.10
2023-03-31T23:44:38.352Z,6.10
2023-03-31T23:47:06.125Z,6.10
2023-03-31T23:49:33.554Z,6.10
2023-03-31T23:52:00.872Z,6.00
2023-03-31T23:54:27.949Z,5.90
2023-03-31T23:56:55.035Z,5.90
2023-03-31T23:59:22.198Z,5.80
